Time;durP1;ratioP1;P1;durP2;ratioP2;P2;SDS_P1;SDS_P2;PMS_P1;PMS_P2;Temp;Humidity;BMP_temperature;BMP_pressure;BME280_temperature;BME280_humidity;BME280_pressure;Samples;Min_cycle;Max_cycle;Signal;HPM_P1;HPM_P2
2021/04/22 00:00:38;;;;;;;18.60;15.80;;;11.20;75.80;;;;;;4922543;29;20227;-82
2021/04/22 00:03:16;;;;;;;20.90;15.00;;;11.30;75.40;;;;;;4921680;29;20865;-83
2021/04/22 00:05:44;;;;;;;19.70;16.03;;;11.30;75.50;;;;;;4929055;29;20205;-82
2021/04/22 00:08:13;;;;;;;19.53;15.20;;;11.20;76.00;;;;;;4934279;28;20237;-82
2021/04/22 00:10:43;;;;;;;17.70;14.93;;;11.20;75.70;;;;;;4934723;28;20269;-83
2021/04/22 00:13:12;;;;;;;18.57;15.37;;;11.00;75.90;;;;;;4930645;29;20241;-82
2021/04/22 00:15:40;;;;;;;23.17;15.53;;;11.10;76.00;;;;;;4929701;29;20194;-84
2021/04/22 00:18:09;;;;;;;20.17;15.67;;;11.00;76.20;;;;;;4919609;29;20215;-83
2021/04/22 00:20:38;;;;;;;19.63;15.67;;;11.00;76.00;;;;;;4923837;29;20239;-83
2021/04/22 00:23:10;;;;;;;18.67;15.93;;;11.00;76.00;;;;;;4923464;29;20248;-81
2021/04/22 00:25:41;;;;;;;20.17;15.77;;;11.00;76.10;;;;;;4919486;29;20328;-84
2021/04/22 00:28:09;;;;;;;22.90;16.07;;;11.00;76.20;;;;;;4919547;29;20596;-83
2021/04/22 00:30:38;;;;;;;21.87;16.67;;;11.00;76.70;;;;;;4920667;28;20217;-83
2021/04/22 00:33:07;;;;;;;20.00;15.40;;;11.00;76.30;;;;;;4930465;29;20197;-83
2021/04/22 00:35:36;;;;;;;22.23;16.67;;;11.10;76.50;;;;;;4929038;29;20249;-84
2021/04/22 00:38:06;;;;;;;21.97;16.80;;;11.00;76.50;;;;;;4924317;29;20213;-82
2021/04/22 00:40:34;;;;;;;21.20;16.80;;;11.10;76.50;;;;;;4930906;29;20214;-83
2021/04/22 00:43:05;;;;;;;23.17;17.00;;;11.10;76.70;;;;;;4937130;29;21272;-82
2021/04/22 00:45:37;;;;;;;22.67;17.67;;;11.00;76.70;;;;;;4931354;29;20211;-83
2021/04/22 00:48:05;;;;;;;20.73;16.17;;;10.90;77.10;;;;;;4931280;29;20252;-82
2021/04/22 00:50:35;;;;;;;22.40;18.53;;;11.00;77.30;;;;;;4936654;28;20265;-84
2021/04/22 00:53:05;;;;;;;23.00;17.67;;;11.10;77.30;;;;;;4929972;29;20665;-83
2021/04/22 00:55:34;;;;;;;22.33;16.53;;;11.10;77.50;;;;;;4934220;29;20236;-83
2021/04/22 00:58:03;;;;;;;21.83;16.80;;;11.10;77.70;;;;;;4933154;28;20884;-83
2021/04/22 01:00:32;;;;;;;23.53;17.67;;;11.10;77.90;;;;;;4936665;29;20212;-82
2021/04/22 01:03:00;;;;;;;23.00;16.43;;;11.00;78.10;;;;;;4939360;28;20213;-86
2021/04/22 01:05:30;;;;;;;23.53;17.33;;;11.00;78.40;;;;;;4924777;29;20213;-83
2021/04/22 01:07:58;;;;;;;19.73;15.60;;;11.00;78.80;;;;;;4926869;29;20222;-82
2021/04/22 01:10:27;;;;;;;19.73;14.23;;;11.00;79.00;;;;;;4929358;29;20219;-84
2021/04/22 01:12:55;;;;;;;20.83;15.63;;;10.90;79.40;;;;;;4928271;28;20278;-84
2021/04/22 01:15:27;;;;;;;17.90;15.20;;;10.90;79.80;;;;;;4925535;28;20210;-83
2021/04/22 01:17:56;;;;;;;17.97;14.70;;;10.80;80.00;;;;;;4919033;29;20195;-82
2021/04/22 01:20:27;;;;;;;21.17;15.80;;;10.70;80.30;;;;;;4924184;29;20215;-83
2021/04/22 01:22:56;;;;;;;21.80;15.17;;;10.70;80.40;;;;;;4933249;29;20206;-83
2021/04/22 01:25:27;;;;;;;19.67;15.50;;;10.60;80.70;;;;;;4928583;29;20199;-84
2021/04/22 01:27:56;;;;;;;20.30;15.03;;;10.50;81.20;;;;;;4924343;29;20229;-84
2021/04/22 01:30:26;;;;;;;16.70;14.33;;;10.50;81.30;;;;;;4947011;28;20199;-81
2021/04/22 01:32:54;;;;;;;18.37;14.67;;;10.40;81.50;;;;;;4932332;28;20653;-82
2021/04/22 01:35:27;;;;;;;20.40;15.07;;;10.50;81.50;;;;;;4923292;28;20233;-82
2021/04/22 01:37:55;;;;;;;17.20;13.53;;;10.20;81.40;;;;;;4916654;29;20676;-82
2021/04/22 01:40:25;;;;;;;17.83;13.77;;;10.30;81.40;;;;;;4929549;29;20680;-83
2021/04/22 01:42:54;;;;;;;17.73;12.97;;;10.20;81.40;;;;;;4923505;29;20198;-83
2021/04/22 01:45:22;;;;;;;18.40;13.93;;;10.20;81.40;;;;;;4931742;29;20245;-82
2021/04/22 01:47:52;;;;;;;15.30;11.00;;;10.20;81.30;;;;;;4938362;28;20317;-82
2021/04/22 01:50:29;;;;;;;16.50;12.80;;;10.10;81.30;;;;;;4943127;28;20249;-83
2021/04/22 01:52:58;;;;;;;16.67;12.60;;;10.30;81.50;;;;;;4924794;29;20197;-84
2021/04/22 01:55:31;;;;;;;15.13;12.43;;;10.00;81.50;;;;;;4927639;28;20211;-83
2021/04/22 01:57:59;;;;;;;16.77;11.73;;;9.90;81.50;;;;;;4930476;28;20182;-82
2021/04/22 02:00:30;;;;;;;15.13;11.87;;;9.80;81.70;;;;;;4948535;28;21653;-82
2021/04/22 02:02:57;;;;;;;17.87;12.10;;;9.70;81.90;;;;;;4947374;28;20523;-82
2021/04/22 02:05:25;;;;;;;16.87;12.07;;;9.60;82.00;;;;;;4949514;28;20201;-83
2021/04/22 02:07:53;;;;;;;16.43;11.23;;;9.50;82.30;;;;;;4946188;28;20297;-82
2021/04/22 02:10:22;;;;;;;18.47;11.87;;;9.30;82.40;;;;;;4949745;28;20218;-82
2021/04/22 02:12:51;;;;;;;14.20;11.07;;;9.40;82.00;;;;;;4946217;28;20194;-83
2021/04/22 02:15:20;;;;;;;13.40;10.03;;;9.50;81.90;;;;;;4942728;28;20237;-83
2021/04/22 02:17:47;;;;;;;14.33;10.60;;;9.50;81.90;;;;;;4947523;28;20221;-82
2021/04/22 02:20:17;;;;;;;12.37;9.43;;;9.40;82.00;;;;;;4948094;28;20202;-82
2021/04/22 02:22:45;;;;;;;14.77;10.67;;;9.40;82.10;;;;;;4948172;28;20230;-83
2021/04/22 02:25:16;;;;;;;13.43;10.53;;;9.20;82.20;;;;;;4950362;28;20937;-82
2021/04/22 02:27:45;;;;;;;13.67;10.67;;;9.10;82.40;;;;;;4942778;28;20257;-82
2021/04/22 02:30:17;;;;;;;12.53;10.53;;;9.10;82.80;;;;;;4949116;28;20212;-82
2021/04/22 02:32:45;;;;;;;15.07;11.33;;;9.00;82.60;;;;;;4948131;28;20182;-83
2021/04/22 02:35:15;;;;;;;14.53;10.90;;;9.00;82.90;;;;;;4948623;28;20197;-83
2021/04/22 02:37:43;;;;;;;16.87;11.43;;;9.00;83.10;;;;;;4945273;28;20190;-85
2021/04/22 02:40:15;;;;;;;13.77;10.83;;;8.80;83.30;;;;;;4944805;28;20439;-84
2021/04/22 02:42:44;;;;;;;12.33;9.10;;;8.90;83.50;;;;;;4944721;28;20206;-83
2021/04/22 02:45:15;;;;;;;13.50;9.80;;;9.00;83.30;;;;;;4944811;28;20190;-82
2021/04/22 02:47:43;;;;;;;14.13;10.37;;;9.00;82.90;;;;;;4943263;28;20225;-82
2021/04/22 02:50:13;;;;;;;13.17;9.03;;;9.10;83.00;;;;;;4946414;28;20194;-83
2021/04/22 02:52:41;;;;;;;10.10;7.07;;;9.00;83.10;;;;;;4944460;28;20459;-83
2021/04/22 02:55:10;;;;;;;12.87;8.67;;;9.00;83.20;;;;;;4938736;28;20197;-82
2021/04/22 02:57:38;;;;;;;15.40;11.13;;;9.00;83.30;;;;;;4929663;29;20216;-83
2021/04/22 03:00:12;;;;;;;15.17;10.10;;;9.00;83.20;;;;;;4933012;29;20215;-82
2021/04/22 03:02:40;;;;;;;13.40;10.50;;;8.90;83.20;;;;;;4942024;28;20202;-83
2021/04/22 03:05:10;;;;;;;15.87;10.60;;;8.90;83.40;;;;;;4943587;28;20201;-85
2021/04/22 03:07:37;;;;;;;12.87;9.60;;;8.90;83.40;;;;;;4940878;28;20245;-84
2021/04/22 03:10:08;;;;;;;13.93;10.73;;;9.00;83.20;;;;;;4950023;28;20332;-83
2021/04/22 03:12:36;;;;;;;15.37;11.00;;;9.00;83.30;;;;;;4938684;28;20234;-82
2021/04/22 03:15:05;;;;;;;15.07;10.57;;;9.00;83.40;;;;;;4941141;29;20562;-83
2021/04/22 03:17:34;;;;;;;16.63;11.20;;;9.00;83.70;;;;;;4941658;28;20210;-83
2021/04/22 03:20:09;;;;;;;14.30;11.17;;;9.00;83.80;;;;;;4944697;28;20212;-82
2021/04/22 03:22:38;;;;;;;16.27;11.33;;;8.90;83.90;;;;;;4948429;28;20182;-84
2021/04/22 03:25:08;;;;;;;15.97;10.77;;;8.90;84.20;;;;;;4940671;28;20206;-82
2021/04/22 03:27:35;;;;;;;14.83;11.77;;;8.80;84.30;;;;;;4921907;29;20253;-83
2021/04/22 03:30:06;;;;;;;16.50;12.03;;;8.80;84.80;;;;;;4930751;29;20202;-82
2021/04/22 03:32:35;;;;;;;15.93;11.47;;;8.80;85.10;;;;;;4941330;28;20198;-82
2021/04/22 03:35:04;;;;;;;13.67;10.40;;;8.70;85.20;;;;;;4940259;28;20220;-83
2021/04/22 03:37:32;;;;;;;13.90;10.47;;;8.80;84.50;;;;;;4941672;28;20266;-83
2021/04/22 03:40:00;;;;;;;12.90;9.83;;;8.80;84.50;;;;;;4939386;29;20204;-85
2021/04/22 03:42:28;;;;;;;8.80;6.70;;;8.70;84.00;;;;;;4939236;29;20205;-82
2021/04/22 03:44:56;;;;;;;10.97;6.97;;;8.80;82.70;;;;;;4937353;29;20209;-83
2021/04/22 03:47:23;;;;;;;7.53;6.13;;;8.70;81.80;;;;;;4942869;28;20269;-84
2021/04/22 03:49:52;;;;;;;8.20;6.00;;;8.70;81.80;;;;;;4937118;28;20249;-81
2021/04/22 03:52:20;;;;;;;10.63;6.23;;;8.70;81.10;;;;;;4944945;29;20202;-82
2021/04/22 03:54:49;;;;;;;8.50;5.83;;;8.60;81.00;;;;;;4939274;29;20232;-83
2021/04/22 03:57:16;;;;;;;8.67;5.60;;;8.60;81.10;;;;;;4946522;28;20197;-83
2021/04/22 03:59:45;;;;;;;12.80;7.23;;;8.60;81.40;;;;;;4949819;28;21322;-83
2021/04/22 04:02:12;;;;;;;9.27;5.80;;;8.60;81.50;;;;;;4941480;29;20217;-82
2021/04/22 04:04:40;;;;;;;9.30;6.27;;;8.60;81.50;;;;;;4941198;29;20209;-84
2021/04/22 04:07:08;;;;;;;7.83;5.60;;;8.60;81.60;;;;;;4936656;29;20326;-83
2021/04/22 04:09:36;;;;;;;9.63;5.50;;;8.70;81.90;;;;;;4941723;28;20204;-82
2021/04/22 04:12:05;;;;;;;7.17;4.93;;;8.50;81.70;;;;;;4936111;29;20658;-84
2021/04/22 04:14:37;;;;;;;11.53;6.10;;;8.50;82.00;;;;;;4926294;29;20212;-83
2021/04/22 04:17:05;;;;;;;9.70;5.30;;;8.40;82.00;;;;;;4924293;29;20212;-82
2021/04/22 04:19:33;;;;;;;9.13;5.13;;;8.30;82.40;;;;;;4915978;29;20236;-83
2021/04/22 04:22:01;;;;;;;7.70;5.40;;;8.20;82.50;;;;;;4920782;28;20216;-83
2021/04/22 04:24:29;;;;;;;8.23;5.57;;;8.10;83.10;;;;;;4923793;29;20228;-82
2021/04/22 04:26:57;;;;;;;10.93;6.53;;;8.00;83.80;;;;;;4916908;29;20213;-84
2021/04/22 04:29:26;;;;;;;10.43;6.10;;;7.80;84.80;;;;;;4925797;29;20218;-83
2021/04/22 04:31:53;;;;;;;9.23;6.90;;;7.70;85.30;;;;;;4927190;29;20203;-83
2021/04/22 04:34:21;;;;;;;9.30;7.20;;;7.60;85.70;;;;;;4931267;29;20211;-82
2021/04/22 04:36:49;;;;;;;7.23;5.07;;;7.50;85.70;;;;;;4927496;29;20294;-83
2021/04/22 04:39:17;;;;;;;9.97;5.03;;;7.60;86.20;;;;;;4919700;29;20708;-84
2021/04/22 04:41:45;;;;;;;12.30;6.93;;;7.40;86.20;;;;;;4927918;29;21004;-83
2021/04/22 04:44:13;;;;;;;12.30;8.03;;;7.20;86.50;;;;;;4918316;29;20386;-82
2021/04/22 04:46:41;;;;;;;12.57;7.53;;;7.20;87.20;;;;;;4929230;28;20233;-83
2021/04/22 04:49:12;;;;;;;8.67;7.27;;;7.10;87.60;;;;;;4923406;29;20222;-83
2021/04/22 04:51:41;;;;;;;10.23;7.70;;;6.90;88.20;;;;;;4934282;28;20304;-82
2021/04/22 04:54:09;;;;;;;7.93;6.57;;;6.90;89.20;;;;;;4949668;28;20212;-84
2021/04/22 04:56:37;;;;;;;9.30;6.73;;;6.80;89.00;;;;;;4948720;28;20206;-82
2021/04/22 04:59:05;;;;;;;11.00;6.50;;;6.70;88.40;;;;;;4940217;28;20214;-83
2021/04/22 05:01:33;;;;;;;11.33;7.23;;;6.50;89.10;;;;;;4925620;29;20214;-83
2021/04/22 05:04:01;;;;;;;9.87;6.10;;;6.40;90.10;;;;;;4932637;29;20210;-83
2021/04/22 05:06:28;;;;;;;9.50;5.93;;;6.40;90.30;;;;;;4934885;28;20238;-81
2021/04/22 05:08:56;;;;;;;11.77;7.10;;;6.30;90.20;;;;;;4917620;29;20237;-83
2021/04/22 05:11:24;;;;;;;10.50;6.27;;;6.20;90.70;;;;;;4924767;28;20296;-84
2021/04/22 05:13:51;;;;;;;10.43;5.87;;;6.00;90.90;;;;;;4919411;28;20668;-82
2021/04/22 05:16:20;;;;;;;9.60;4.90;;;5.80;90.70;;;;;;4913236;29;20735;-82
2021/04/22 05:18:47;;;;;;;8.57;4.83;;;5.70;91.10;;;;;;4916027;28;20505;-83
2021/04/22 05:21:15;;;;;;;9.90;4.77;;;5.50;90.60;;;;;;4915734;29;20215;-82
2021/04/22 05:23:43;;;;;;;7.83;4.43;;;5.40;91.10;;;;;;4916055;28;20239;-83
2021/04/22 05:26:11;;;;;;;6.90;4.50;;;5.20;91.70;;;;;;4915258;28;20572;-85
2021/04/22 05:28:39;;;;;;;7.63;4.70;;;5.20;92.10;;;;;;4924232;29;20240;-80
2021/04/22 05:31:09;;;;;;;12.30;5.00;;;5.20;92.90;;;;;;4923036;29;20220;-84
2021/04/22 05:33:37;;;;;;;9.33;4.50;;;5.30;93.70;;;;;;4916138;29;20563;-81
2021/04/22 05:36:06;;;;;;;9.40;4.43;;;5.30;94.00;;;;;;4921251;28;20215;-82
2021/04/22 05:38:33;;;;;;;7.13;4.57;;;5.30;94.20;;;;;;4914805;29;20233;-82
2021/04/22 05:41:01;;;;;;;8.17;4.43;;;5.40;94.30;;;;;;4918619;29;20365;-83
2021/04/22 05:43:29;;;;;;;8.67;4.87;;;5.30;94.70;;;;;;4921964;28;20213;-82
2021/04/22 05:45:56;;;;;;;8.57;3.90;;;5.50;95.50;;;;;;4921711;28;20232;-85
2021/04/22 05:48:25;;;;;;;10.60;4.50;;;5.70;95.40;;;;;;4919429;29;20329;-81
2021/04/22 05:50:53;;;;;;;8.67;4.73;;;5.90;95.70;;;;;;4917450;29;20320;-83
2021/04/22 05:53:21;;;;;;;8.43;4.30;;;6.00;95.50;;;;;;4920207;29;20483;-83
2021/04/22 05:55:49;;;;;;;6.43;4.10;;;6.00;94.40;;;;;;4923268;28;20225;-83
2021/04/22 05:58:17;;;;;;;11.23;4.17;;;6.10;94.10;;;;;;4914103;29;20691;-83
2021/04/22 06:00:47;;;;;;;8.87;4.47;;;6.10;93.50;;;;;;4924268;29;20206;-81
2021/04/22 06:03:15;;;;;;;8.37;4.50;;;6.10;93.00;;;;;;4931006;28;20214;-82
2021/04/22 06:05:43;;;;;;;7.77;4.87;;;6.20;93.10;;;;;;4944304;28;20282;-83
2021/04/22 06:08:12;;;;;;;11.23;5.17;;;6.30;92.50;;;;;;4937237;28;20345;-83
2021/04/22 06:10:40;;;;;;;7.73;4.57;;;6.30;93.10;;;;;;4940997;28;20282;-82
2021/04/22 06:13:08;;;;;;;12.10;4.70;;;6.40;93.50;;;;;;4921565;29;20688;-82
2021/04/22 06:15:36;;;;;;;9.00;4.77;;;6.50;93.10;;;;;;4918457;29;20660;-81
2021/04/22 06:18:04;;;;;;;10.07;5.07;;;6.60;93.80;;;;;;4915096;28;20456;-82
2021/04/22 06:20:32;;;;;;;9.40;4.40;;;6.60;92.90;;;;;;4933834;28;20232;-82
2021/04/22 06:23:12;;;;;;;5.80;4.43;;;6.60;92.70;;;;;;4924070;29;20356;-82
2021/04/22 06:25:40;;;;;;;7.53;4.80;;;6.70;93.30;;;;;;4940852;28;20258;-81
2021/04/22 06:28:08;;;;;;;7.00;5.27;;;6.80;92.60;;;;;;4934751;28;20228;-83
2021/04/22 06:30:36;;;;;;;10.50;6.23;;;6.80;92.20;;;;;;4931336;28;20605;-82
2021/04/22 06:33:05;;;;;;;13.27;6.70;;;6.80;92.10;;;;;;4934371;28;20204;-82
2021/04/22 06:35:32;;;;;;;12.03;6.87;;;6.90;92.20;;;;;;4933590;28;20454;-82
2021/04/22 06:38:00;;;;;;;11.80;6.67;;;7.00;92.00;;;;;;4921384;28;20207;-82
2021/04/22 06:40:28;;;;;;;14.73;7.27;;;7.00;91.60;;;;;;4908458;28;20280;-85
2021/04/22 06:42:56;;;;;;;11.70;6.47;;;7.00;92.20;;;;;;4908278;28;20209;-83
2021/04/22 06:45:24;;;;;;;17.60;6.90;;;7.10;92.30;;;;;;4907691;29;21394;-82
2021/04/22 06:47:52;;;;;;;8.63;6.20;;;7.20;92.70;;;;;;4923213;28;20235;-82
2021/04/22 06:50:22;;;;;;;11.20;6.53;;;7.30;91.80;;;;;;4914572;28;20327;-84
2021/04/22 06:52:51;;;;;;;9.37;6.43;;;7.40;91.30;;;;;;4907469;29;20702;-83
2021/04/22 06:55:20;;;;;;;11.57;5.80;;;7.60;90.60;;;;;;4912716;29;20204;-82
2021/04/22 06:57:58;;;;;;;9.17;6.23;;;7.70;89.10;;;;;;4903803;29;20280;-81
2021/04/22 07:00:29;;;;;;;10.57;5.60;;;7.90;90.60;;;;;;4917328;28;20209;-82
2021/04/22 07:02:57;;;;;;;6.70;4.50;;;8.20;90.40;;;;;;4914543;28;20216;-83
2021/04/22 07:05:28;;;;;;;10.93;4.50;;;8.40;84.40;;;;;;4910295;29;20442;-82
2021/04/22 07:07:56;;;;;;;9.43;4.13;;;8.40;82.60;;;;;;4914235;28;20807;-80
2021/04/22 07:10:24;;;;;;;10.87;5.20;;;8.30;83.00;;;;;;4907959;28;20221;-83
2021/04/22 07:12:55;;;;;;;8.07;3.97;;;8.40;84.70;;;;;;4908510;29;20485;-82
2021/04/22 07:15:23;;;;;;;8.93;3.57;;;8.50;83.60;;;;;;4922877;28;20203;-83
2021/04/22 07:17:59;;;;;;;9.83;4.10;;;8.70;82.00;;;;;;4920186;29;20622;-84
2021/04/22 07:20:28;;;;;;;6.73;3.97;;;8.80;82.70;;;;;;4911927;29;20210;-82
2021/04/22 07:22:59;;;;;;;8.77;3.20;;;8.70;82.10;;;;;;4907364;28;20633;-82
2021/04/22 07:25:29;;;;;;;5.87;3.37;;;8.70;81.90;;;;;;4917298;29;20676;-84
2021/04/22 07:27:58;;;;;;;5.53;2.87;;;8.70;81.20;;;;;;4908655;29;20591;-81
2021/04/22 07:30:27;;;;;;;5.33;2.70;;;8.80;80.20;;;;;;4914224;28;20217;-82
2021/04/22 07:32:55;;;;;;;7.97;3.00;;;8.70;78.20;;;;;;4916978;28;20198;-83
2021/04/22 07:35:25;;;;;;;9.53;2.90;;;8.50;77.60;;;;;;4912857;29;20214;-84
2021/04/22 07:37:53;;;;;;;6.50;2.80;;;8.50;76.90;;;;;;4907749;29;20289;-82
2021/04/22 07:40:23;;;;;;;6.10;2.60;;;8.40;75.20;;;;;;4923363;28;20217;-81
2021/04/22 07:42:54;;;;;;;7.17;3.20;;;8.30;75.40;;;;;;4920382;29;20239;-80
2021/04/22 07:45:34;;;;;;;9.27;2.97;;;8.10;75.40;;;;;;4912737;29;20218;-82
2021/04/22 07:48:03;;;;;;;8.07;3.53;;;8.10;75.50;;;;;;4904994;29;20216;-81
2021/04/22 07:50:31;;;;;;;7.13;2.97;;;8.10;76.70;;;;;;4912576;29;20213;-82
2021/04/22 07:52:59;;;;;;;7.67;3.43;;;8.30;77.40;;;;;;4907980;29;20237;-82
2021/04/22 07:55:31;;;;;;;9.50;3.03;;;8.40;76.60;;;;;;4912876;29;20210;-82
2021/04/22 07:58:00;;;;;;;8.17;3.00;;;8.40;73.90;;;;;;4905922;29;20314;-83
2021/04/22 08:00:31;;;;;;;10.37;3.40;;;8.40;73.00;;;;;;4907201;29;20663;-82
2021/04/22 08:03:04;;;;;;;9.03;4.00;;;8.50;75.00;;;;;;4906057;29;20206;-83
2021/04/22 08:05:35;;;;;;;7.27;3.03;;;8.40;75.00;;;;;;4910985;29;20226;-84
2021/04/22 08:08:07;;;;;;;7.27;3.23;;;8.40;73.40;;;;;;4911845;29;20833;-82
2021/04/22 08:10:43;;;;;;;9.20;2.90;;;8.40;73.40;;;;;;4907026;29;20241;-81
2021/04/22 08:13:15;;;;;;;9.97;3.57;;;8.40;73.70;;;;;;4916873;29;20209;-82
2021/04/22 08:15:44;;;;;;;9.77;3.30;;;8.20;73.40;;;;;;4934228;28;20202;-82
2021/04/22 08:18:13;;;;;;;5.30;3.10;;;8.50;74.50;;;;;;4919081;28;20268;-83
2021/04/22 08:20:41;;;;;;;9.67;3.40;;;8.70;74.70;;;;;;4923551;28;20202;-82
2021/04/22 08:23:11;;;;;;;6.90;2.97;;;8.90;74.10;;;;;;4903272;29;20298;-82
2021/04/22 08:25:41;;;;;;;8.00;3.50;;;9.00;74.10;;;;;;4924007;29;20231;-81
2021/04/22 08:28:11;;;;;;;6.00;3.10;;;9.10;72.40;;;;;;4919758;29;20237;-82
2021/04/22 08:30:43;;;;;;;6.27;2.97;;;9.00;71.60;;;;;;4921816;28;20461;-83
2021/04/22 08:33:14;;;;;;;8.83;3.07;;;9.10;71.10;;;;;;4902255;29;20210;-81
2021/04/22 08:35:42;;;;;;;7.03;2.97;;;9.00;70.60;;;;;;4904233;29;20236;-82
2021/04/22 08:38:11;;;;;;;7.47;3.00;;;8.90;69.60;;;;;;4906233;29;20214;-85
2021/04/22 08:40:39;;;;;;;9.53;3.63;;;8.90;70.80;;;;;;4911057;29;21163;-84
2021/04/22 08:43:07;;;;;;;8.60;2.97;;;8.90;70.10;;;;;;4912537;29;20214;-83
2021/04/22 08:45:34;;;;;;;9.77;3.40;;;8.90;70.00;;;;;;4909308;29;20218;-82
2021/04/22 08:48:03;;;;;;;10.20;3.60;;;8.90;69.90;;;;;;4910380;29;20234;-84
2021/04/22 08:50:34;;;;;;;5.70;3.30;;;8.90;71.60;;;;;;4913108;28;20217;-84
2021/04/22 08:53:04;;;;;;;7.40;3.03;;;8.80;68.10;;;;;;4913328;29;20218;-82
2021/04/22 08:55:33;;;;;;;8.83;3.30;;;8.80;67.40;;;;;;4915640;28;20209;-81
2021/04/22 08:58:04;;;;;;;8.77;2.97;;;8.60;66.90;;;;;;4914022;29;20218;-83
2021/04/22 09:00:35;;;;;;;7.20;2.97;;;8.80;67.60;;;;;;4915055;28;20745;-83
2021/04/22 09:03:04;;;;;;;7.00;3.17;;;8.80;66.70;;;;;;4912153;28;21024;-81
2021/04/22 09:05:36;;;;;;;10.87;3.27;;;8.70;67.50;;;;;;4908229;28;20547;-84
2021/04/22 09:08:07;;;;;;;9.10;3.10;;;8.70;68.40;;;;;;4916970;28;20539;-83
2021/04/22 09:10:38;;;;;;;6.63;2.70;;;8.80;66.50;;;;;;4912326;29;20236;-82
2021/04/22 09:13:08;;;;;;;6.93;3.13;;;8.80;64.80;;;;;;4915249;29;20198;-82
2021/04/22 09:15:39;;;;;;;6.83;3.63;;;8.80;64.70;;;;;;4920645;29;20275;-84
2021/04/22 09:18:10;;;;;;;9.23;3.53;;;8.80;65.10;;;;;;4918055;28;20655;-82
2021/04/22 09:20:40;;;;;;;5.57;2.80;;;8.70;65.20;;;;;;4910156;28;20907;-80
2021/04/22 09:23:20;;;;;;;8.97;3.40;;;8.70;65.60;;;;;;4923771;28;20266;-81
2021/04/22 09:25:55;;;;;;;8.33;2.80;;;8.80;66.00;;;;;;4933172;28;20623;-83
2021/04/22 09:28:32;;;;;;;7.13;2.60;;;8.90;65.40;;;;;;4917361;28;20340;-80
2021/04/22 09:31:00;;;;;;;10.33;3.40;;;9.00;66.40;;;;;;4922692;28;20202;-83
2021/04/22 09:33:30;;;;;;;11.17;3.70;;;9.00;64.60;;;;;;4914611;28;20214;-82
2021/04/22 09:36:11;;;;;;;8.50;3.30;;;9.00;65.90;;;;;;4906920;29;20220;-84
2021/04/22 09:38:40;;;;;;;8.83;3.03;;;9.20;66.40;;;;;;4909490;28;20209;-83
2021/04/22 09:41:25;;;;;;;17.27;3.50;;;9.30;67.20;;;;;;4907439;28;20225;-82
2021/04/22 09:44:03;;;;;;;13.63;3.60;;;9.40;67.60;;;;;;4920814;29;20225;-82
2021/04/22 09:46:32;;;;;;;6.90;3.67;;;9.40;66.40;;;;;;4915361;29;20443;-83
2021/04/22 09:49:00;;;;;;;10.87;3.60;;;9.50;66.10;;;;;;4919726;29;20226;-84
2021/04/22 09:51:34;;;;;;;7.60;3.30;;;9.40;66.60;;;;;;4918278;28;20210;-82
2021/04/22 09:54:04;;;;;;;9.93;3.43;;;9.60;67.20;;;;;;4912822;29;20214;-83
2021/04/22 09:56:49;;;;;;;7.97;3.57;;;9.60;65.70;;;;;;4912931;28;20280;-82
2021/04/22 09:59:23;;;;;;;9.57;3.50;;;9.50;66.50;;;;;;4911418;29;20214;-86
2021/04/22 10:02:00;;;;;;;8.63;3.40;;;9.60;67.30;;;;;;4914810;28;20213;-83
2021/04/22 10:04:32;;;;;;;9.20;3.63;;;9.60;66.00;;;;;;4914265;29;20233;-84
2021/04/22 10:07:01;;;;;;;5.70;3.60;;;9.50;65.70;;;;;;4906550;29;20869;-83
2021/04/22 10:09:33;;;;;;;11.70;3.80;;;9.50;67.10;;;;;;4911955;29;20673;-83
2021/04/22 10:12:02;;;;;;;9.57;3.80;;;9.80;66.20;;;;;;4904134;29;20238;-83
2021/04/22 10:14:33;;;;;;;8.40;3.37;;;9.80;67.60;;;;;;4916126;28;20963;-82
2021/04/22 10:17:12;;;;;;;7.63;3.27;;;9.80;66.50;;;;;;4930824;28;20203;-81
2021/04/22 10:19:40;;;;;;;7.50;3.40;;;9.80;65.80;;;;;;4919927;28;20636;-83
2021/04/22 10:22:09;;;;;;;6.77;2.97;;;9.70;65.20;;;;;;4926413;29;21193;-84
2021/04/22 10:24:39;;;;;;;7.17;3.20;;;9.80;66.50;;;;;;4927634;28;20229;-82
2021/04/22 10:27:06;;;;;;;5.30;3.00;;;9.80;65.00;;;;;;4914776;28;20521;-84
2021/04/22 10:29:34;;;;;;;6.93;3.00;;;9.90;64.40;;;;;;4908151;28;20327;-84
2021/04/22 10:32:02;;;;;;;8.93;3.73;;;9.90;63.60;;;;;;4926509;28;20209;-85
2021/04/22 10:34:31;;;;;;;10.30;3.77;;;9.80;63.60;;;;;;4935108;28;20305;-86
2021/04/22 10:36:58;;;;;;;8.67;3.40;;;9.90;64.30;;;;;;4929372;29;20186;-86
2021/04/22 10:39:27;;;;;;;6.87;3.13;;;9.90;64.30;;;;;;4932362;28;20206;-86
2021/04/22 10:41:59;;;;;;;8.97;3.40;;;10.20;65.00;;;;;;4930825;28;20214;-87
2021/04/22 10:44:31;;;;;;;11.60;3.83;;;10.50;63.50;;;;;;4922965;28;20190;-84
2021/04/22 10:46:59;;;;;;;6.07;3.37;;;10.60;64.00;;;;;;4933749;28;20205;-86
2021/04/22 10:49:28;;;;;;;7.97;3.17;;;10.80;63.70;;;;;;4915488;29;20233;-84
2021/04/22 10:51:57;;;;;;;8.47;3.97;;;10.90;63.30;;;;;;4916445;29;20207;-84
2021/04/22 10:54:26;;;;;;;6.13;3.20;;;10.80;63.20;;;;;;4912620;28;20213;-84
2021/04/22 10:57:04;;;;;;;4.60;2.60;;;10.90;64.40;;;;;;4911000;28;21342;-83
2021/04/22 10:59:33;;;;;;;4.87;2.53;;;11.00;61.70;;;;;;4910760;29;20708;-84
2021/04/22 11:02:14;;;;;;;7.97;3.07;;;11.10;61.90;;;;;;4903400;29;20296;-85
2021/04/22 11:04:45;;;;;;;6.80;3.13;;;11.10;62.40;;;;;;4909673;29;20995;-83
2021/04/22 11:07:21;;;;;;;9.17;3.50;;;10.90;61.50;;;;;;4911591;28;20357;-85
2021/04/22 11:09:51;;;;;;;7.47;3.30;;;10.80;62.60;;;;;;4918325;28;20365;-86
2021/04/22 11:12:25;;;;;;;8.03;3.20;;;10.70;64.20;;;;;;4908501;28;20551;-84
2021/04/22 11:14:55;;;;;;;7.27;3.20;;;10.80;63.20;;;;;;4921395;29;20288;-86
2021/04/22 11:17:35;;;;;;;6.30;3.20;;;10.70;62.20;;;;;;4924228;29;20203;-84
2021/04/22 11:20:13;;;;;;;9.27;3.70;;;10.80;62.60;;;;;;4933451;28;20268;-85
2021/04/22 11:22:41;;;;;;;6.80;3.80;;;10.70;62.50;;;;;;4910460;28;20215;-84
2021/04/22 11:25:10;;;;;;;10.10;3.60;;;10.70;62.40;;;;;;4912147;29;20586;-86
2021/04/22 11:27:49;;;;;;;8.40;3.87;;;10.60;63.50;;;;;;4908252;28;20320;-83
2021/04/22 11:30:27;;;;;;;7.73;3.30;;;10.80;63.80;;;;;;4919068;28;20241;-84
2021/04/22 11:32:56;;;;;;;5.93;3.33;;;11.10;63.70;;;;;;4915736;29;20233;-84
2021/04/22 11:35:28;;;;;;;8.53;3.10;;;11.00;61.30;;;;;;4928737;28;20213;-85
2021/04/22 11:38:04;;;;;;;5.57;3.40;;;10.80;61.50;;;;;;4927168;29;20293;-85
2021/04/22 11:40:39;;;;;;;7.33;2.97;;;10.60;62.50;;;;;;4917690;28;20205;-81
2021/04/22 11:43:19;;;;;;;6.53;2.97;;;10.50;61.70;;;;;;4913965;29;20217;-84
2021/04/22 11:45:51;;;;;;;5.80;3.47;;;10.50;62.50;;;;;;4918866;29;20645;-85
2021/04/22 11:48:20;;;;;;;6.17;3.60;;;10.60;62.20;;;;;;4917816;29;20211;-83
2021/04/22 11:50:51;;;;;;;5.20;3.40;;;10.70;62.00;;;;;;4923523;29;20209;-85
2021/04/22 11:53:23;;;;;;;9.17;4.10;;;10.60;62.10;;;;;;4915375;29;20206;-86
2021/04/22 11:55:53;;;;;;;7.13;3.97;;;10.60;62.60;;;;;;4914336;29;20379;-82
2021/04/22 11:58:24;;;;;;;10.57;4.53;;;10.60;62.60;;;;;;4915875;29;20238;-82
2021/04/22 12:00:58;;;;;;;8.30;3.90;;;10.70;63.50;;;;;;4911674;29;20226;-84
2021/04/22 12:03:28;;;;;;;9.97;4.23;;;11.00;64.30;;;;;;4923816;28;20216;-81
2021/04/22 12:05:58;;;;;;;10.20;4.00;;;11.20;63.10;;;;;;4928444;28;20217;-82
2021/04/22 12:08:30;;;;;;;8.63;3.60;;;11.20;62.10;;;;;;4929846;28;20206;-81
2021/04/22 12:10:58;;;;;;;7.50;3.90;;;11.20;62.60;;;;;;4927209;28;20579;-84
2021/04/22 12:13:27;;;;;;;6.10;4.03;;;11.40;62.40;;;;;;4934376;28;20553;-83
2021/04/22 12:15:57;;;;;;;7.57;3.40;;;11.50;62.70;;;;;;4931500;28;20209;-81
2021/04/22 12:18:28;;;;;;;7.90;3.87;;;11.50;61.20;;;;;;4937164;28;20210;-82
2021/04/22 12:21:07;;;;;;;7.33;3.50;;;11.40;61.50;;;;;;4919807;29;20477;-82
2021/04/22 12:23:37;;;;;;;5.67;4.00;;;11.60;62.50;;;;;;4932213;28;20209;-80
2021/04/22 12:26:17;;;;;;;9.50;3.67;;;11.70;60.40;;;;;;4926079;28;20217;-83
2021/04/22 12:28:53;;;;;;;6.83;3.77;;;11.40;60.80;;;;;;4931851;28;20221;-83
2021/04/22 12:31:26;;;;;;;6.30;3.43;;;11.50;61.30;;;;;;4927719;28;20205;-84
2021/04/22 12:33:55;;;;;;;5.40;3.40;;;11.60;60.00;;;;;;4935226;28;20205;-83
2021/04/22 12:36:24;;;;;;;6.47;3.77;;;11.50;60.50;;;;;;4938786;28;20210;-83
2021/04/22 12:38:51;;;;;;;5.53;3.17;;;11.60;60.60;;;;;;4931261;28;20183;-83
2021/04/22 12:41:20;;;;;;;7.10;3.50;;;11.60;59.70;;;;;;4927460;28;20997;-84
2021/04/22 12:43:50;;;;;;;6.17;3.67;;;11.70;60.20;;;;;;4910945;28;20405;-83
2021/04/22 12:46:20;;;;;;;6.20;3.27;;;11.90;60.00;;;;;;4913319;29;20217;-82
2021/04/22 12:48:54;;;;;;;6.03;3.03;;;11.90;59.50;;;;;;4907531;29;20553;-83
2021/04/22 12:51:31;;;;;;;4.67;3.00;;;11.90;58.10;;;;;;4910073;29;20218;-81
2021/04/22 12:54:01;;;;;;;6.13;3.43;;;12.10;58.80;;;;;;4919199;28;20508;-85
2021/04/22 12:56:32;;;;;;;4.63;3.00;;;12.10;58.60;;;;;;4914810;29;20573;-80
2021/04/22 12:59:06;;;;;;;4.50;3.30;;;12.20;59.30;;;;;;4931563;28;20202;-84